TimeCST,TemperatureF,Dew PointF,Humidity,Sea Level PressureIn,VisibilityMPH,Wind Direction,Wind SpeedMPH,Gust SpeedMPH,PrecipitationIn,Events,Conditions,WindDirDegrees,DateUTC
12:15 AM,30.2,28.4,93,30.43,5.0,Calm,Calm,-,N/A,,Clear,0,2013-01-04 06:15:00
12:35 AM,28.4,28.4,100,30.43,5.0,Calm,Calm,-,N/A,,Clear,0,2013-01-04 06:35:00
12:55 AM,28.4,26.6,93,30.42,5.0,Calm,Calm,-,N/A,,Clear,0,2013-01-04 06:55:00
1:15 AM,28.4,26.6,93,30.42,3.0,Calm,Calm,-,N/A,,Clear,0,2013-01-04 07:15:00
1:56 AM,28.4,26.6,93,30.43,3.0,West,3.5,-,N/A,,Clear,270,2013-01-04 07:56:00
2:35 AM,28.4,26.6,93,30.44,4.0,West,3.5,-,N/A,,Clear,270,2013-01-04 08:35:00
2:55 AM,26.6,24.8,93,30.45,7.0,West,4.6,-,N/A,,Clear,280,2013-01-04 08:55:00
3:35 AM,26.6,24.8,93,30.44,10.0,WNW,3.5,-,N/A,,Clear,290,2013-01-04 09:35:00
3:55 AM,26.6,24.8,93,30.44,10.0,Calm,Calm,-,N/A,,Clear,0,2013-01-04 09:55:00
4:15 AM,26.6,24.8,93,30.43,10.0,Calm,Calm,-,N/A,,Clear,0,2013-01-04 10:15:00
4:35 AM,26.6,23.0,86,30.43,9.0,Calm,Calm,-,N/A,,Clear,0,2013-01-04 10:35:00
4:55 AM,26.6,24.8,93,30.42,10.0,Calm,Calm,-,N/A,,Clear,0,2013-01-04 10:55:00
5:35 AM,26.6,24.8,93,30.43,7.0,Calm,Calm,-,N/A,,Clear,0,2013-01-04 11:35:00
5:55 AM,26.6,24.8,93,30.44,10.0,Calm,Calm,-,N/A,,Clear,0,2013-01-04 11:55:00
6:15 AM,24.8,23.0,93,30.44,9.0,SSW,4.6,-,N/A,,Clear,200,2013-01-04 12:15:00
6:35 AM,26.6,24.8,93,30.44,9.0,SW,4.6,-,N/A,,Clear,230,2013-01-04 12:35:00
7:15 AM,26.6,24.8,93,30.46,9.0,WSW,6.9,-,N/A,,Clear,240,2013-01-04 13:15:00
7:35 AM,24.8,23.0,93,30.47,10.0,West,6.9,-,N/A,,Clear,280,2013-01-04 13:35:00
7:55 AM,26.6,24.8,93,30.47,10.0,West,5.8,-,N/A,,Clear,280,2013-01-04 13:55:00
8:15 AM,26.6,24.8,93,30.48,10.0,WNW,4.6,-,N/A,,Clear,290,2013-01-04 14:15:00
8:55 AM,28.4,24.8,86,30.49,10.0,West,3.5,-,N/A,,Clear,270,2013-01-04 14:55:00
9:15 AM,30.2,26.6,86,30.50,10.0,Calm,Calm,-,N/A,,Clear,0,2013-01-04 15:15:00
9:35 AM,30.2,26.6,86,30.50,10.0,Calm,Calm,-,N/A,,Clear,0,2013-01-04 15:35:00
9:55 AM,32.0,26.6,80,30.50,10.0,Calm,Calm,-,N/A,,Clear,0,2013-01-04 15:55:00
10:15 AM,33.8,28.4,81,30.50,10.0,SW,3.5,-,N/A,,Clear,230,2013-01-04 16:15:00
10:35 AM,35.6,26.6,70,30.50,10.0,SW,4.6,-,N/A,,Clear,220,2013-01-04 16:35:00
10:55 AM,35.6,28.4,75,30.49,10.0,West,3.5,-,N/A,,Clear,270,2013-01-04 16:55:00
11:15 AM,35.6,28.4,75,30.49,10.0,Calm,Calm,-,N/A,,Clear,0,2013-01-04 17:15:00
11:35 AM,37.4,30.2,75,30.48,10.0,West,3.5,-,N/A,,Clear,280,2013-01-04 17:35:00
11:55 AM,39.2,30.2,70,30.48,10.0,West,6.9,-,N/A,,Clear,260,2013-01-04 17:55:00
12:15 PM,41.0,28.4,61,30.47,10.0,West,9.2,-,N/A,,Clear,260,2013-01-04 18:15:00
12:36 PM,42.8,28.4,57,30.46,10.0,WSW,8.1,-,N/A,,Clear,250,2013-01-04 18:36:00
12:55 PM,42.8,26.6,53,30.45,10.0,WSW,8.1,-,N/A,,Clear,250,2013-01-04 18:55:00
1:15 PM,42.8,26.6,53,30.44,10.0,West,8.1,-,N/A,,Clear,260,2013-01-04 19:15:00
1:35 PM,42.8,26.6,53,30.43,10.0,WSW,5.8,-,N/A,,Clear,240,2013-01-04 19:35:00
1:55 PM,42.8,28.4,57,30.43,10.0,SW,5.8,-,N/A,,Clear,220,2013-01-04 19:55:00
2:36 PM,44.6,26.6,49,30.42,10.0,West,4.6,-,N/A,,Clear,260,2013-01-04 20:36:00
2:55 PM,44.6,24.8,46,30.42,10.0,West,6.9,-,N/A,,Clear,260,2013-01-04 20:55:00
3:15 PM,44.6,24.8,46,30.42,10.0,WSW,3.5,-,N/A,,Clear,250,2013-01-04 21:15:00
3:35 PM,44.6,23.0,43,30.42,10.0,West,6.9,-,N/A,,Clear,260,2013-01-04 21:35:00
3:55 PM,44.6,21.2,39,30.42,10.0,WSW,3.5,-,N/A,,Clear,250,2013-01-04 21:55:00
4:15 PM,44.6,24.8,46,30.42,10.0,SW,6.9,-,N/A,,Clear,220,2013-01-04 22:15:00
4:55 PM,39.2,26.6,61,30.41,10.0,SW,4.6,-,N/A,,Clear,230,2013-01-04 22:55:00
5:35 PM,39.2,24.8,56,30.41,10.0,SW,5.8,-,N/A,,Clear,220,2013-01-04 23:35:00
5:55 PM,37.4,24.8,60,30.41,10.0,SW,4.6,-,N/A,,Clear,230,2013-01-04 23:55:00
6:15 PM,39.2,26.6,61,30.41,10.0,SW,3.5,-,N/A,,Clear,230,2013-01-05 00:15:00
6:35 PM,37.4,28.4,70,30.42,10.0,SW,3.5,-,N/A,,Clear,230,2013-01-05 00:35:00
7:15 PM,35.6,28.4,75,30.41,10.0,South,4.6,-,N/A,,Clear,190,2013-01-05 01:15:00
7:35 PM,33.8,26.6,75,30.41,10.0,SSE,6.9,-,N/A,,Clear,160,2013-01-05 01:35:00
7:55 PM,32.0,28.4,87,30.42,10.0,South,6.9,-,N/A,,Clear,170,2013-01-05 01:55:00
8:15 PM,33.8,28.4,81,30.41,10.0,South,5.8,-,N/A,,Clear,180,2013-01-05 02:15:00
8:35 PM,33.8,28.4,81,30.41,10.0,South,4.6,-,N/A,,Clear,180,2013-01-05 02:35:00
8:55 PM,33.8,28.4,81,30.41,10.0,South,6.9,-,N/A,,Clear,180,2013-01-05 02:55:00
9:15 PM,32.0,28.4,87,30.41,10.0,South,5.8,-,N/A,,Clear,170,2013-01-05 03:15:00
9:35 PM,32.0,28.4,87,30.41,10.0,South,6.9,-,N/A,,Clear,180,2013-01-05 03:35:00
9:55 PM,32.0,28.4,87,30.41,10.0,SSW,6.9,-,N/A,,Clear,200,2013-01-05 03:55:00
10:15 PM,32.0,28.4,87,30.41,10.0,SSW,5.8,-,N/A,,Clear,200,2013-01-05 04:15:00
10:55 PM,33.8,28.4,81,30.39,10.0,SSW,3.5,-,N/A,,Clear,210,2013-01-05 04:55:00
11:15 PM,30.2,28.4,93,30.39,10.0,South,4.6,-,N/A,,Clear,190,2013-01-05 05:15:00
11:35 PM,30.2,28.4,93,30.39,10.0,SSW,5.8,-,N/A,,Clear,200,2013-01-05 05:35:00
11:55 PM,32.0,28.4,87,30.40,10.0,SW,5.8,-,N/A,,Clear,220,2013-01-05 05:55:00